createdAt,value
2022-09-14T00:00:09.084Z,100304.81
2022-09-14T00:02:10.702Z,100305.90
2022-09-14T00:04:13.839Z,100302.59
2022-09-14T00:06:15.890Z,100300.06
2022-09-14T00:08:17.424Z,100294.69
2022-09-14T00:10:18.920Z,100293.04
2022-09-14T00:12:20.415Z,100289.86
2022-09-14T00:14:21.941Z,100289.69
2022-09-14T00:16:24.674Z,100288.60
2022-09-14T00:18:26.231Z,100285.33
2022-09-14T00:20:27.745Z,100279.59
2022-09-14T00:22:29.229Z,100277.50
2022-09-14T00:24:31.058Z,100272.16
2022-09-14T00:26:32.895Z,100266.41
2022-09-14T00:28:38.187Z,100265.05
2022-09-14T00:30:41.526Z,100261.17
2022-09-14T00:32:43.038Z,100256.73
2022-09-14T00:34:44.727Z,100252.70
2022-09-14T00:36:47.469Z,100250.48
2022-09-14T00:38:49.293Z,100249.05
2022-09-14T00:41:27.343Z,100248.52
2022-09-14T00:43:30.033Z,100242.15
2022-09-14T00:45:31.803Z,100238.82
2022-09-14T00:48:40.361Z,100230.77
2022-09-14T00:50:42.013Z,100230.98
2022-09-14T00:52:44.834Z,100227.91
2022-09-14T00:54:50.393Z,100229.61
2022-09-14T00:56:51.948Z,100223.05
2022-09-14T00:58:53.508Z,100221.85
2022-09-14T01:01:14.315Z,100217.42
2022-09-14T01:03:15.906Z,100213.35
2022-09-14T01:05:17.504Z,100210.52
2022-09-14T01:07:19.175Z,100206.20
2022-09-14T01:09:40.149Z,100208.99
2022-09-14T01:11:53.542Z,100208.05
2022-09-14T01:13:55.026Z,100207.15
2022-09-14T01:15:59.063Z,100204.12
2022-09-14T01:18:08.309Z,100202.55
2022-09-14T01:20:19.899Z,100200.66
2022-09-14T01:22:24.021Z,100201.16
2022-09-14T01:24:30.379Z,100200.31
2022-09-14T01:26:44.111Z,100202.35
2022-09-14T01:28:51.058Z,100201.94
2022-09-14T01:30:52.715Z,100193.98
2022-09-14T01:33:06.378Z,100195.00
2022-09-14T01:35:15.791Z,100194.77
2022-09-14T01:37:21.240Z,100192.91
2022-09-14T01:39:22.841Z,100191.08
2022-09-14T01:41:24.770Z,100189.56
2022-09-14T01:43:30.139Z,100189.17
2022-09-14T01:45:31.744Z,100190.66
2022-09-14T01:47:47.419Z,100190.06
2022-09-14T01:49:51.662Z,100190.17
2022-09-14T01:51:58.620Z,100186.73
2022-09-14T01:54:20.723Z,100181.58
2022-09-14T01:56:23.791Z,100183.02
2022-09-14T01:58:34.792Z,100185.55
2022-09-14T02:00:37.099Z,100185.82
2022-09-14T02:02:39.794Z,100188.66
2022-09-14T02:04:49.311Z,100186.86
2022-09-14T02:06:50.874Z,100183.64
2022-09-14T02:08:52.405Z,100184.83
2022-09-14T02:10:53.958Z,100183.81
2022-09-14T02:12:55.528Z,100183.34
2022-09-14T02:14:57.068Z,100182.80
2022-09-14T02:16:58.678Z,100182.33
2022-09-14T02:19:01.697Z,100177.76
2022-09-14T02:21:04.723Z,100178.47
2022-09-14T02:23:06.262Z,100177.82
2022-09-14T02:25:07.983Z,100182.20
2022-09-14T02:27:09.502Z,100185.13
2022-09-14T02:29:10.996Z,100181.67
2022-09-14T02:31:21.898Z,100178.98
2022-09-14T02:33:27.481Z,100177.08
2022-09-14T02:35:32.536Z,100172.69
2022-09-14T02:37:54.361Z,100173.03
2022-09-14T02:40:08.199Z,100171.85
2022-09-14T02:42:17.899Z,100168.58
2022-09-14T02:44:45.662Z,100169.80
2022-09-14T02:46:50.160Z,100171.36
2022-09-14T02:48:57.402Z,100170.49
2022-09-14T02:50:58.917Z,100166.88
2022-09-14T02:53:09.943Z,100167.12
2022-09-14T02:55:24.423Z,100169.33
2022-09-14T02:57:26.213Z,100168.40
2022-09-14T02:59:27.909Z,100164.83
2022-09-14T03:01:29.571Z,100162.05
2022-09-14T03:03:35.484Z,100156.02
2022-09-14T03:05:37.535Z,100161.59
2022-09-14T03:07:39.027Z,100156.23
2022-09-14T03:09:40.530Z,100154.44
2022-09-14T03:11:42.049Z,100151.19
2022-09-14T03:13:44.534Z,100149.12
2022-09-14T03:15:46.228Z,100145.17
2022-09-14T03:17:48.164Z,100144.42
2022-09-14T03:19:49.874Z,100142.70
2022-09-14T03:21:51.944Z,100142.24
2022-09-14T03:23:55.251Z,100138.15
2022-09-14T03:25:56.751Z,100138.95
2022-09-14T03:27:58.979Z,100133.17
2022-09-14T03:30:00.532Z,100130.58
2022-09-14T03:32:02.253Z,100131.63
2022-09-14T03:34:04.010Z,100127.89
2022-09-14T03:36:12.848Z,100122.93
2022-09-14T03:38:14.353Z,100123.23
2022-09-14T03:40:21.440Z,100119.55
2022-09-14T03:42:23.551Z,100120.93
2022-09-14T03:44:25.112Z,100120.69
2022-09-14T03:46:26.745Z,100124.11
2022-09-14T03:48:29.273Z,100125.61
2022-09-14T03:50:30.840Z,100122.56
2022-09-14T03:52:33.243Z,100122.51
2022-09-14T03:54:34.754Z,100124.99
2022-09-14T03:56:36.261Z,100122.96
2022-09-14T03:58:37.768Z,100124.95
2022-09-14T04:00:40.081Z,100122.45
2022-09-14T04:02:42.115Z,100125.30
2022-09-14T04:04:43.664Z,100124.63
2022-09-14T04:06:45.234Z,100120.86
2022-09-14T04:08:47.126Z,100120.77
2022-09-14T04:10:49.280Z,100122.34
2022-09-14T04:12:50.797Z,100124.48
2022-09-14T04:14:52.326Z,100121.80
2022-09-14T04:16:53.858Z,100123.90
2022-09-14T04:18:55.355Z,100124.21
2022-09-14T04:20:57.760Z,100124.77
2022-09-14T04:22:59.267Z,100125.00
2022-09-14T04:25:00.778Z,100125.79
2022-09-14T04:27:02.300Z,100128.52
2022-09-14T04:29:03.819Z,100131.10
2022-09-14T04:31:05.605Z,100125.35
2022-09-14T04:33:07.105Z,100126.98
2022-09-14T04:35:08.990Z,100124.78
2022-09-14T04:37:10.489Z,100123.25
2022-09-14T04:39:12.455Z,100120.96
2022-09-14T04:41:15.025Z,100121.31
2022-09-14T04:43:16.607Z,100124.48
2022-09-14T04:45:18.110Z,100125.85
2022-09-14T04:47:19.635Z,100127.26
2022-09-14T04:49:39.519Z,100127.02
2022-09-14T04:51:41.058Z,100125.44
2022-09-14T04:53:42.876Z,100125.56
2022-09-14T04:55:44.586Z,100122.50
2022-09-14T05:00:02.407Z,100125.58
2022-09-14T05:02:04.076Z,100126.94
2022-09-14T05:04:06.335Z,100125.70
2022-09-14T05:06:09.069Z,100128.02
2022-09-14T05:08:10.654Z,100127.00
2022-09-14T05:10:12.203Z,100126.84
2022-09-14T05:12:13.736Z,100128.17
2022-09-14T05:14:15.345Z,100128.06
2022-09-14T05:16:56.451Z,100127.23
2022-09-14T05:19:01.218Z,100132.39
2022-09-14T05:21:08.577Z,100130.45
2022-09-14T05:23:10.249Z,100124.69
2022-09-14T05:25:11.771Z,100125.92
2022-09-14T05:27:13.280Z,100125.69
2022-09-14T05:29:15.619Z,100124.77
2022-09-14T05:31:17.234Z,100126.19
2022-09-14T05:33:19.155Z,100128.06
2022-09-14T05:35:20.652Z,100126.70
2022-09-14T05:37:38.436Z,100127.16
2022-09-14T05:39:42.107Z,100128.27
2022-09-14T05:41:43.788Z,100125.65
2022-09-14T05:43:45.615Z,100127.70
2022-09-14T05:45:47.153Z,100125.88
2022-09-14T05:47:48.736Z,100128.10
2022-09-14T05:49:50.402Z,100127.83
2022-09-14T05:51:51.996Z,100133.77
2022-09-14T05:53:54.816Z,100133.55
2022-09-14T05:56:06.655Z,100132.63
2022-09-14T05:58:08.260Z,100128.36
2022-09-14T06:00:10.032Z,100130.17
2022-09-14T06:02:15.309Z,100128.48
2022-09-14T06:04:19.100Z,100129.41
2022-09-14T06:06:20.884Z,100129.76
2022-09-14T06:08:23.606Z,100128.77
2022-09-14T06:10:25.091Z,100128.59
2022-09-14T06:12:27.435Z,100128.88
2022-09-14T06:14:29.022Z,100132.62
2022-09-14T06:16:30.577Z,100134.85
2022-09-14T06:19:02.012Z,100136.52
2022-09-14T06:21:03.998Z,100137.50
2022-09-14T06:23:13.421Z,100134.89
2022-09-14T06:25:15.212Z,100132.81
2022-09-14T06:27:16.958Z,100136.95
2022-09-14T06:29:18.504Z,100137.64
2022-09-14T06:31:22.692Z,100137.80
2022-09-14T06:33:24.443Z,100139.52
2022-09-14T06:35:25.987Z,100140.70
2022-09-14T06:37:27.586Z,100140.30
2022-09-14T06:39:29.115Z,100137.31
2022-09-14T06:41:32.877Z,100141.27
2022-09-14T06:43:35.849Z,100142.04
2022-09-14T06:45:37.503Z,100142.52
2022-09-14T06:47:39.036Z,100142.90
2022-09-14T06:49:40.630Z,100146.28
2022-09-14T06:51:42.993Z,100149.30
2022-09-14T06:53:45.032Z,100147.25
2022-09-14T06:55:46.633Z,100147.66
2022-09-14T06:57:48.821Z,100147.56
2022-09-14T06:59:50.407Z,100149.02
2022-09-14T07:01:51.971Z,100150.11
2022-09-14T07:03:53.819Z,100152.08
2022-09-14T07:06:01.095Z,100153.80
2022-09-14T07:08:02.591Z,100152.73
2022-09-14T07:10:04.314Z,100153.67
2022-09-14T07:12:14.094Z,100153.72
2022-09-14T07:16:31.870Z,100151.37
2022-09-14T07:18:34.276Z,100155.61
2022-09-14T07:20:35.832Z,100151.94
2022-09-14T07:22:37.420Z,100155.10
2022-09-14T07:24:38.974Z,100155.59
2022-09-14T07:26:42.334Z,100157.05
2022-09-14T07:28:44.550Z,100158.37
2022-09-14T07:30:46.060Z,100158.00
2022-09-14T07:32:47.599Z,100158.16
2022-09-14T07:34:49.116Z,100155.98
2022-09-14T07:36:51.609Z,100158.59
2022-09-14T07:38:53.712Z,100158.27
2022-09-14T07:40:57.935Z,100161.42
2022-09-14T07:43:01.857Z,100161.35
2022-09-14T07:45:04.363Z,100167.14
2022-09-14T07:47:06.000Z,100167.27
2022-09-14T07:49:09.247Z,100169.17
2022-09-14T07:51:11.118Z,100169.76
2022-09-14T07:53:12.807Z,100171.97
2022-09-14T07:55:14.351Z,100170.39
2022-09-14T07:57:17.059Z,100169.23
2022-09-14T07:59:35.569Z,100167.88
2022-09-14T08:01:37.998Z,100168.06
2022-09-14T08:03:40.488Z,100168.71
2022-09-14T08:05:43.258Z,100165.52
2022-09-14T08:07:44.754Z,100165.77
2022-09-14T08:09:47.249Z,100170.41
2022-09-14T08:11:48.757Z,100170.23
2022-09-14T08:13:51.531Z,100167.66
2022-09-14T08:15:53.019Z,100169.61
2022-09-14T08:17:54.531Z,100174.29
2022-09-14T08:19:56.029Z,100175.83
2022-09-14T08:21:57.898Z,100178.55
2022-09-14T08:23:59.775Z,100178.02
2022-09-14T08:26:05.541Z,100177.38
2022-09-14T08:28:07.031Z,100175.10
2022-09-14T08:30:09.991Z,100174.40
2022-09-14T08:32:13.894Z,100176.40
2022-09-14T08:34:15.936Z,100182.04
2022-09-14T08:36:18.537Z,100178.28
2022-09-14T08:38:20.029Z,100182.20
2022-09-14T08:40:22.022Z,100178.83
2022-09-14T08:42:25.172Z,100182.05
2022-09-14T08:44:37.995Z,100179.00
2022-09-14T08:46:40.653Z,100180.31
2022-09-14T08:48:44.387Z,100182.17
2022-09-14T08:50:45.886Z,100179.21
2022-09-14T08:52:47.341Z,100184.61
2022-09-14T08:54:59.186Z,100184.89
2022-09-14T08:57:07.744Z,100190.18
2022-09-14T08:59:28.144Z,100190.86
2022-09-14T09:01:29.827Z,100192.73
2022-09-14T09:03:34.099Z,100196.63
2022-09-14T09:05:36.930Z,100196.39
2022-09-14T09:07:48.970Z,100200.14
2022-09-14T09:09:51.258Z,100200.98
2022-09-14T09:11:53.497Z,100200.82
2022-09-14T09:13:55.087Z,100199.36
2022-09-14T09:16:00.193Z,100198.31
2022-09-14T09:18:22.001Z,100196.05
2022-09-14T09:20:26.587Z,100197.01
2022-09-14T09:22:29.728Z,100199.35
2022-09-14T09:24:40.082Z,100199.73
2022-09-14T09:26:42.228Z,100199.92
2022-09-14T09:28:49.883Z,100197.64
2022-09-14T09:30:52.099Z,100200.44
2022-09-14T09:32:53.635Z,100201.29
2022-09-14T09:34:55.177Z,100201.46
2022-09-14T09:36:56.825Z,100203.05
2022-09-14T09:39:02.939Z,100204.55
2022-09-14T09:41:23.197Z,100201.43
2022-09-14T09:43:45.712Z,100202.80
2022-09-14T09:45:47.410Z,100204.49
2022-09-14T09:47:49.958Z,100204.77
2022-09-14T09:49:57.436Z,100207.06
2022-09-14T09:52:21.720Z,100206.04
2022-09-14T09:54:24.718Z,100203.11
2022-09-14T09:56:26.958Z,100198.90
2022-09-14T09:58:28.466Z,100197.13
2022-09-14T10:00:30.124Z,100199.45
2022-09-14T10:02:32.218Z,100200.52
2022-09-14T10:04:35.363Z,100201.62
2022-09-14T10:06:49.818Z,100201.83
2022-09-14T10:08:51.309Z,100199.35
2022-09-14T10:10:52.823Z,100201.86
2022-09-14T10:12:55.612Z,100201.63
2022-09-14T10:15:06.036Z,100200.11
2022-09-14T10:17:17.296Z,100202.23
2022-09-14T10:19:22.071Z,100199.84
2022-09-14T10:21:23.993Z,100198.44
2022-09-14T10:23:26.507Z,100194.43
2022-09-14T10:25:29.201Z,100190.56
2022-09-14T10:27:37.793Z,100192.01
2022-09-14T10:29:43.062Z,100187.94
2022-09-14T10:31:44.715Z,100187.94
2022-09-14T10:33:46.953Z,100188.95
2022-09-14T10:35:57.643Z,100189.08
2022-09-14T10:38:08.206Z,100185.50
2022-09-14T10:40:20.914Z,100182.78
2022-09-14T10:42:25.531Z,100178.02
2022-09-14T10:44:46.415Z,100174.30
2022-09-14T10:47:01.362Z,100173.27
2022-09-14T10:49:05.636Z,100170.29
2022-09-14T10:51:19.133Z,100165.95
2022-09-14T10:53:33.830Z,100164.67
2022-09-14T10:55:44.813Z,100152.52
2022-09-14T10:58:06.810Z,100152.19
2022-09-14T11:00:12.251Z,100152.77
2022-09-14T11:02:35.951Z,100152.77
2022-09-14T11:04:59.020Z,100151.44
2022-09-14T11:07:06.554Z,100151.41
2022-09-14T11:09:14.260Z,100157.38
2022-09-14T11:11:37.783Z,100153.36
2022-09-14T11:13:59.750Z,100157.98
2022-09-14T11:16:01.296Z,100156.16
2022-09-14T11:18:53.499Z,100155.13
2022-09-14T11:21:01.203Z,100153.59
2022-09-14T11:23:21.893Z,100151.98
2022-09-14T11:25:42.415Z,100158.71
2022-09-14T11:27:44.935Z,100163.68
2022-09-14T11:29:46.421Z,100160.28
2022-09-14T11:32:16.874Z,100166.42
2022-09-14T11:34:26.027Z,100167.41
2022-09-14T11:36:34.768Z,100166.34
2022-09-14T11:38:36.843Z,100169.40
2022-09-14T11:41:04.349Z,100169.66
2022-09-14T11:43:24.546Z,100174.34
2022-09-14T11:45:36.854Z,100176.55
2022-09-14T11:47:40.597Z,100186.56
2022-09-14T11:49:48.126Z,100183.73
2022-09-14T11:51:51.940Z,100183.91
2022-09-14T11:53:53.506Z,100181.42
2022-09-14T11:55:55.005Z,100178.80
2022-09-14T11:57:58.078Z,100173.93
2022-09-14T12:00:00.558Z,100170.97
2022-09-14T12:02:21.188Z,100173.92
2022-09-14T12:04:23.755Z,100176.92
2022-09-14T12:06:31.136Z,100181.36
2022-09-14T12:08:32.812Z,100178.79
2022-09-14T12:10:54.287Z,100178.45
2022-09-14T12:13:22.054Z,100177.92
2022-09-14T12:15:26.378Z,100177.41
2022-09-14T12:17:41.728Z,100175.93
2022-09-14T12:19:46.619Z,100173.25
2022-09-14T12:21:48.177Z,100175.84
2022-09-14T12:23:52.491Z,100174.00
2022-09-14T12:25:55.349Z,100176.16
2022-09-14T12:27:56.849Z,100179.11
2022-09-14T12:29:58.787Z,100181.75
2022-09-14T12:32:01.420Z,100180.38
2022-09-14T12:34:13.982Z,100180.06
2022-09-14T12:36:21.567Z,100174.38
2022-09-14T12:38:31.960Z,100175.73
2022-09-14T12:40:34.610Z,100178.42
2022-09-14T12:42:36.206Z,100179.61
2022-09-14T12:44:38.841Z,100182.59
2022-09-14T12:46:40.561Z,100181.92
2022-09-14T12:48:48.417Z,100185.59
2022-09-14T12:50:50.533Z,100182.21
2022-09-14T12:52:52.045Z,100182.90
2022-09-14T12:55:03.142Z,100186.15
2022-09-14T12:57:04.651Z,100186.83
2022-09-14T12:59:28.266Z,100189.60
2022-09-14T13:01:32.977Z,100180.51
2022-09-14T13:03:41.036Z,100178.86
2022-09-14T13:05:48.416Z,100179.14
2022-09-14T13:07:50.230Z,100179.33
2022-09-14T13:09:53.070Z,100183.11
2022-09-14T13:11:56.393Z,100179.58
2022-09-14T13:13:58.093Z,100176.39
2022-09-14T13:16:00.584Z,100180.67
2022-09-14T13:18:03.647Z,100179.15
2022-09-14T13:20:06.128Z,100179.17
2022-09-14T13:22:25.926Z,100178.94
2022-09-14T13:24:27.423Z,100182.56
2022-09-14T13:26:29.854Z,100177.09
2022-09-14T13:28:32.084Z,100172.13
2022-09-14T13:30:34.576Z,100169.84
2022-09-14T13:32:36.861Z,100164.65
2022-09-14T13:34:41.127Z,100163.45
2022-09-14T13:36:42.814Z,100159.55
2022-09-14T13:38:44.390Z,100155.15
2022-09-14T13:40:46.197Z,100157.45
2022-09-14T13:42:47.726Z,100154.41
2022-09-14T13:44:50.011Z,100157.30
2022-09-14T13:46:51.561Z,100149.90
2022-09-14T13:48:53.570Z,100147.73
2022-09-14T13:50:55.103Z,100147.19
2022-09-14T13:53:02.630Z,100148.02
2022-09-14T13:55:12.548Z,100150.05
2022-09-14T13:57:19.014Z,100149.59
2022-09-14T13:59:24.228Z,100148.89
2022-09-14T14:01:27.009Z,100147.38
2022-09-14T14:03:32.766Z,100145.47
2022-09-14T14:05:36.289Z,100144.27
2022-09-14T14:07:37.798Z,100142.60
2022-09-14T14:09:52.025Z,100141.87
2022-09-14T14:11:54.969Z,100142.27
2022-09-14T14:13:56.767Z,100137.56
2022-09-14T14:16:16.848Z,100139.99
2022-09-14T14:18:50.775Z,100142.16
2022-09-14T14:20:52.335Z,100148.19
2022-09-14T14:22:55.012Z,100148.70
2022-09-14T14:25:14.400Z,100149.48
2022-09-14T14:27:35.987Z,100148.78
2022-09-14T14:29:38.340Z,100152.35
2022-09-14T14:31:45.858Z,100147.56
2022-09-14T14:33:51.123Z,100144.89
2022-09-14T14:35:53.866Z,100145.09
2022-09-14T14:37:55.451Z,100144.69
2022-09-14T14:39:57.144Z,100143.88
2022-09-14T14:41:58.721Z,100145.95
2022-09-14T14:44:00.254Z,100150.67
2022-09-14T14:46:01.996Z,100143.95
2022-09-14T14:48:03.778Z,100145.16
2022-09-14T14:50:13.434Z,100138.50
2022-09-14T14:52:15.965Z,100133.40
2022-09-14T14:54:20.198Z,100128.30
2022-09-14T14:56:21.749Z,100130.42
2022-09-14T14:58:23.704Z,100130.45
2022-09-14T15:00:25.230Z,100130.33
2022-09-14T15:02:26.752Z,100129.09
2022-09-14T15:04:28.409Z,100128.42
2022-09-14T15:06:32.765Z,100122.98
2022-09-14T15:08:34.275Z,100126.86
2022-09-14T15:10:35.828Z,100127.70
2022-09-14T15:12:38.779Z,100126.20
2022-09-14T15:14:40.293Z,100131.23
2022-09-14T15:16:42.062Z,100131.20
2022-09-14T15:18:43.854Z,100131.83
2022-09-14T15:20:45.484Z,100126.61
2022-09-14T15:22:47.536Z,100127.11
2022-09-14T15:24:49.079Z,100126.80
2022-09-14T15:26:50.576Z,100128.09
2022-09-14T15:28:52.785Z,100127.19
2022-09-14T15:30:54.428Z,100129.16
2022-09-14T15:32:55.923Z,100128.66
2022-09-14T15:34:57.502Z,100126.95
2022-09-14T15:36:59.057Z,100127.91
2022-09-14T15:39:00.597Z,100130.05
2022-09-14T15:41:02.225Z,100124.17
2022-09-14T15:43:04.349Z,100124.76
2022-09-14T15:45:06.319Z,100122.34
2022-09-14T15:47:08.271Z,100123.59
2022-09-14T15:49:19.938Z,100126.48
2022-09-14T15:51:24.017Z,100126.55
2022-09-14T15:53:25.529Z,100130.88
2022-09-14T15:55:30.074Z,100131.81
2022-09-14T15:57:31.910Z,100131.86
2022-09-14T15:59:33.618Z,100130.15
2022-09-14T16:01:36.099Z,100126.77
2022-09-14T16:03:37.730Z,100126.60
2022-09-14T16:05:39.581Z,100127.29
2022-09-14T16:07:41.255Z,100126.35
2022-09-14T16:09:43.138Z,100129.07
2022-09-14T16:11:44.816Z,100131.63
2022-09-14T16:13:46.683Z,100133.14
2022-09-14T16:15:48.239Z,100130.34
2022-09-14T16:17:51.640Z,100128.90
2022-09-14T16:19:54.418Z,100127.52
2022-09-14T16:21:58.798Z,100127.63
2022-09-14T16:24:00.943Z,100126.06
2022-09-14T16:26:06.677Z,100124.73
2022-09-14T16:28:08.229Z,100122.77
2022-09-14T16:30:10.066Z,100124.52
2022-09-14T16:32:13.978Z,100124.06
2022-09-14T16:34:20.167Z,100121.92
2022-09-14T16:36:22.842Z,100122.25
2022-09-14T16:38:24.343Z,100124.39
2022-09-14T16:40:26.154Z,100124.48
2022-09-14T16:42:27.689Z,100123.69
2022-09-14T16:44:29.442Z,100125.94
2022-09-14T16:46:31.382Z,100127.45
2022-09-14T16:48:33.778Z,100130.11
2022-09-14T16:50:35.539Z,100132.89
2022-09-14T16:52:37.029Z,100132.94
2022-09-14T16:54:38.550Z,100134.03
2022-09-14T16:56:40.172Z,100144.07
2022-09-14T16:58:42.466Z,100144.42
2022-09-14T17:00:44.458Z,100152.80
2022-09-14T17:02:46.166Z,100153.44
2022-09-14T17:04:48.777Z,100152.73
2022-09-14T17:06:51.645Z,100151.88
2022-09-14T17:08:53.895Z,100150.17
2022-09-14T17:10:55.445Z,100150.40
2022-09-14T17:12:56.974Z,100153.91
2022-09-14T17:14:59.185Z,100156.35
2022-09-14T17:17:01.103Z,100161.12
2022-09-14T17:19:05.678Z,100163.92
2022-09-14T17:21:08.929Z,100170.95
2022-09-14T17:23:10.509Z,100170.67
2022-09-14T17:25:16.713Z,100169.40
2022-09-14T17:27:19.945Z,100171.44
2022-09-14T17:29:21.564Z,100172.63
2022-09-14T17:31:24.176Z,100181.60
2022-09-14T17:33:25.987Z,100180.51
2022-09-14T17:35:27.486Z,100183.38
2022-09-14T17:37:29.069Z,100182.70
2022-09-14T17:39:30.569Z,100188.56
2022-09-14T17:41:33.207Z,100194.10
2022-09-14T17:43:35.269Z,100194.95
2022-09-14T17:45:39.279Z,100204.70
2022-09-14T17:47:40.896Z,100204.98
2022-09-14T17:49:42.438Z,100209.48
2022-09-14T17:51:45.385Z,100212.33
2022-09-14T17:53:47.770Z,100213.10
2022-09-14T17:55:49.362Z,100216.91
2022-09-14T17:57:50.956Z,100222.17
2022-09-14T17:59:52.590Z,100219.09
2022-09-14T18:01:54.239Z,100222.66
2022-09-14T18:03:57.044Z,100227.27
2022-09-14T18:05:58.689Z,100223.97
2022-09-14T18:08:00.413Z,100223.64
2022-09-14T18:10:04.858Z,100231.30
2022-09-14T18:12:06.486Z,100234.27
2022-09-14T18:14:09.873Z,100237.31
2022-09-14T18:16:14.065Z,100240.57
2022-09-14T18:18:15.666Z,100245.03
2022-09-14T18:20:17.259Z,100248.01
2022-09-14T18:22:18.751Z,100253.51
2022-09-14T18:24:20.488Z,100253.09
2022-09-14T18:26:22.607Z,100257.19
2022-09-14T18:28:24.265Z,100258.73
2022-09-14T18:30:25.743Z,100262.64
2022-09-14T18:32:27.419Z,100266.05
2022-09-14T18:34:31.865Z,100269.89
2022-09-14T18:36:33.385Z,100271.75
2022-09-14T18:38:34.964Z,100277.45
2022-09-14T18:40:36.885Z,100282.23
2022-09-14T18:42:38.407Z,100280.34
2022-09-14T18:44:40.007Z,100282.13
2022-09-14T18:46:41.568Z,100282.47
2022-09-14T18:48:45.907Z,100287.52
2022-09-14T18:50:47.421Z,100292.64
2022-09-14T18:52:51.951Z,100297.90
2022-09-14T18:54:53.496Z,100304.70
2022-09-14T18:56:55.039Z,100305.16
2022-09-14T18:58:56.549Z,100306.73
2022-09-14T19:00:58.122Z,100312.41
2022-09-14T19:02:59.734Z,100320.73
2022-09-14T19:05:01.622Z,100321.35
2022-09-14T19:07:03.604Z,100323.73
2022-09-14T19:09:05.826Z,100329.55
2022-09-14T19:11:11.846Z,100331.56
2022-09-14T19:13:13.423Z,100336.96
2022-09-14T19:15:14.997Z,100336.92
2022-09-14T19:17:16.799Z,100337.12
2022-09-14T19:19:18.454Z,100339.52
2022-09-14T19:21:23.652Z,100342.33
2022-09-14T19:23:25.608Z,100343.55
2022-09-14T19:25:27.094Z,100346.02
2022-09-14T19:27:28.762Z,100350.22
2022-09-14T19:29:32.717Z,100350.90
2022-09-14T19:31:34.293Z,100357.28
2022-09-14T19:33:36.194Z,100355.84
2022-09-14T19:35:37.759Z,100358.46
2022-09-14T19:37:39.333Z,100361.06
2022-09-14T19:39:42.640Z,100361.15
2022-09-14T19:41:44.245Z,100360.29
2022-09-14T19:43:45.831Z,100360.77
2022-09-14T19:45:47.431Z,100364.75
2022-09-14T19:47:49.063Z,100370.92
2022-09-14T19:49:50.833Z,100375.19
2022-09-14T19:51:52.543Z,100375.88
2022-09-14T19:53:54.782Z,100382.28
2022-09-14T19:55:56.371Z,100381.14
2022-09-14T19:57:57.918Z,100385.77
2022-09-14T19:59:59.410Z,100388.04
2022-09-14T20:02:01.668Z,100391.48
2022-09-14T20:04:03.665Z,100394.45
2022-09-14T20:06:09.281Z,100398.91
2022-09-14T20:08:10.762Z,100408.70
2022-09-14T20:10:12.304Z,100410.09
2022-09-14T20:12:13.911Z,100405.55
2022-09-14T20:14:19.626Z,100407.83
2022-09-14T20:16:22.503Z,100409.27
2022-09-14T20:18:24.685Z,100406.64
2022-09-14T20:20:26.196Z,100407.16
2022-09-14T20:22:27.791Z,100413.65
2022-09-14T20:24:31.026Z,100413.17
2022-09-14T20:26:32.737Z,100415.59
2022-09-14T20:28:34.514Z,100422.16
2022-09-14T20:30:36.071Z,100424.52
2022-09-14T20:32:37.605Z,100424.01
2022-09-14T20:34:39.243Z,100431.77
2022-09-14T20:36:41.336Z,100431.48
2022-09-14T20:38:50.316Z,100431.83
2022-09-14T20:41:02.646Z,100430.97
2022-09-14T20:43:05.026Z,100429.70
2022-09-14T20:45:06.844Z,100432.23
2022-09-14T20:47:08.371Z,100433.89
2022-09-14T20:49:13.192Z,100432.66
2022-09-14T20:51:19.941Z,100434.02
2022-09-14T20:53:22.905Z,100435.96
2022-09-14T20:55:24.416Z,100440.12
2022-09-14T20:57:25.902Z,100444.02
2022-09-14T20:59:27.566Z,100440.95
2022-09-14T21:01:30.057Z,100441.65
2022-09-14T21:03:31.835Z,100442.44
2022-09-14T21:05:33.369Z,100447.78
2022-09-14T21:07:35.631Z,100452.59
2022-09-14T21:09:37.175Z,100454.68
2022-09-14T21:11:38.853Z,100457.16
2022-09-14T21:13:40.620Z,100460.52
2022-09-14T21:15:42.204Z,100465.35
2022-09-14T21:17:43.767Z,100471.61
2022-09-14T21:19:45.270Z,100474.45
2022-09-14T21:21:47.152Z,100483.36
2022-09-14T21:23:50.496Z,100485.23
2022-09-14T21:25:55.781Z,100487.39
2022-09-14T21:27:57.277Z,100495.43
2022-09-14T21:29:58.791Z,100497.46
2022-09-14T21:32:00.363Z,100498.30
2022-09-14T21:34:02.346Z,100500.42
2022-09-14T21:36:04.951Z,100507.52
2022-09-14T21:38:06.739Z,100509.56
2022-09-14T21:40:08.896Z,100514.60
2022-09-14T21:42:10.485Z,100517.80
2022-09-14T21:44:13.037Z,100521.75
2022-09-14T21:46:14.777Z,100519.88
2022-09-14T21:48:17.326Z,100518.86
2022-09-14T21:50:18.811Z,100525.34
2022-09-14T21:52:20.303Z,100522.11
2022-09-14T21:54:22.290Z,100523.04
2022-09-14T21:56:24.306Z,100526.47
2022-09-14T21:58:25.827Z,100527.86
2022-09-14T22:00:31.032Z,100531.48
2022-09-14T22:02:33.539Z,100533.85
2022-09-14T22:04:35.071Z,100532.80
2022-09-14T22:06:36.628Z,100537.20
2022-09-14T22:08:39.528Z,100537.61
2022-09-14T22:10:41.440Z,100536.13
2022-09-14T22:12:44.177Z,100538.20
2022-09-14T22:14:46.862Z,100538.73
2022-09-14T22:16:48.972Z,100539.59
2022-09-14T22:18:51.939Z,100538.17
2022-09-14T22:20:57.455Z,100536.59
2022-09-14T22:22:59.075Z,100541.35
2022-09-14T22:25:00.605Z,100545.66
2022-09-14T22:27:04.488Z,100548.47
2022-09-14T22:29:06.733Z,100546.89
2022-09-14T22:31:08.705Z,100544.98
2022-09-14T22:33:10.305Z,100545.85
2022-09-14T22:35:12.463Z,100547.55
2022-09-14T22:37:14.035Z,100543.83
2022-09-14T22:39:17.570Z,100544.36
2022-09-14T22:41:19.617Z,100547.75
2022-09-14T22:43:21.412Z,100547.48
2022-09-14T22:45:23.131Z,100546.80
2022-09-14T22:47:24.639Z,100547.02
2022-09-14T22:49:26.159Z,100549.34
2022-09-14T22:51:28.339Z,100551.80
2022-09-14T22:53:30.271Z,100553.85
2022-09-14T22:55:31.937Z,100554.02
2022-09-14T22:57:33.490Z,100551.70
2022-09-14T22:59:35.031Z,100555.09
2022-09-14T23:01:38.112Z,100558.45
2022-09-14T23:03:39.856Z,100562.95
2022-09-14T23:05:48.515Z,100565.38
2022-09-14T23:07:50.198Z,100571.30
2022-09-14T23:09:51.682Z,100572.23
2022-09-14T23:11:53.258Z,100574.96
2022-09-14T23:13:55.108Z,100573.27
2022-09-14T23:15:56.778Z,100573.15
2022-09-14T23:17:58.282Z,100575.92
2022-09-14T23:19:59.803Z,100571.72
2022-09-14T23:22:02.984Z,100571.91
2022-09-14T23:24:05.382Z,100571.54
2022-09-14T23:26:07.906Z,100571.84
2022-09-14T23:28:10.210Z,100576.21
2022-09-14T23:30:12.214Z,100575.61
2022-09-14T23:32:13.843Z,100576.22
2022-09-14T23:34:15.450Z,100576.16
2022-09-14T23:36:17.235Z,100577.97
2022-09-14T23:38:19.000Z,100574.49
2022-09-14T23:40:20.871Z,100580.34
2022-09-14T23:42:22.571Z,100577.77